createdAt,value
2017-10-25T00:01:37.175Z,13.50
2017-10-25T00:06:38.976Z,12.60
2017-10-25T00:11:40.054Z,13.53
2017-10-25T00:16:41.152Z,12.73
2017-10-25T00:21:42.207Z,13.33
2017-10-25T00:26:43.293Z,13.67
2017-10-25T00:31:44.369Z,12.67
2017-10-25T00:36:45.469Z,13.13
2017-10-25T00:41:46.551Z,13.83
2017-10-25T00:46:48.364Z,13.97
2017-10-25T00:51:49.479Z,12.87
2017-10-25T00:56:50.582Z,12.23
2017-10-25T01:01:51.661Z,12.67
2017-10-25T01:06:52.705Z,11.90
2017-10-25T01:11:53.806Z,14.13
2017-10-25T01:16:54.857Z,13.23
2017-10-25T01:21:55.977Z,14.00
2017-10-25T01:26:57.045Z,12.40
2017-10-25T01:31:58.126Z,13.03
2017-10-25T01:36:59.213Z,12.17
2017-10-25T01:42:01.038Z,11.33
2017-10-25T01:47:03.115Z,12.37
2017-10-25T01:52:04.186Z,11.33
2017-10-25T01:57:05.286Z,11.80
2017-10-25T02:02:07.119Z,11.77
2017-10-25T02:07:10.236Z,11.87
2017-10-25T02:12:11.301Z,12.03
2017-10-25T02:17:13.167Z,10.87
2017-10-25T02:22:14.248Z,11.23
2017-10-25T02:27:15.318Z,10.87
2017-10-25T02:32:16.397Z,11.60
2017-10-25T02:37:18.223Z,11.13
2017-10-25T02:42:20.043Z,11.83
2017-10-25T02:47:21.869Z,10.87
2017-10-25T02:52:22.941Z,12.23
2017-10-25T02:57:24.031Z,10.03
2017-10-25T03:02:25.852Z,11.37
2017-10-25T03:07:26.905Z,11.57
2017-10-25T03:12:28.866Z,12.37
2017-10-25T03:17:29.934Z,9.60
2017-10-25T03:22:31.038Z,10.73
2017-10-25T03:27:32.123Z,10.10
2017-10-25T03:32:33.977Z,11.37
2017-10-25T03:37:35.042Z,9.93
2017-10-25T03:42:36.115Z,9.70
2017-10-25T03:47:37.942Z,8.27
2017-10-25T03:52:39.043Z,8.57
2017-10-25T03:57:40.859Z,8.17
2017-10-25T04:02:41.934Z,6.77
2017-10-25T04:07:42.989Z,8.37
2017-10-25T04:12:44.095Z,7.80
2017-10-25T04:17:45.875Z,8.40
2017-10-25T04:22:47.717Z,7.80
2017-10-25T04:27:48.767Z,7.97
2017-10-25T04:32:49.859Z,7.33
2017-10-25T04:37:51.678Z,6.60
2017-10-25T04:42:52.745Z,5.67
2017-10-25T04:47:53.802Z,4.83
2017-10-25T04:52:54.870Z,4.83
2017-10-25T04:57:55.934Z,4.90
2017-10-25T05:02:56.998Z,4.27
2017-10-25T05:07:58.102Z,3.87
2017-10-25T05:12:59.913Z,3.83
2017-10-25T05:18:00.985Z,3.07
2017-10-25T05:23:02.063Z,3.47
2017-10-25T05:28:03.157Z,3.60
2017-10-25T05:33:04.220Z,3.50
2017-10-25T05:38:05.297Z,3.00
2017-10-25T05:43:09.585Z,3.10
2017-10-25T05:48:10.672Z,3.07
2017-10-25T05:53:11.769Z,2.83
2017-10-25T05:58:12.835Z,2.73
2017-10-25T06:03:13.924Z,2.63
2017-10-25T06:08:15.754Z,3.17
2017-10-25T06:13:16.850Z,3.33
2017-10-25T06:18:17.914Z,2.60
2017-10-25T06:23:19.746Z,2.27
2017-10-25T06:28:20.825Z,2.60
2017-10-25T06:33:21.896Z,2.93
2017-10-25T06:38:23.000Z,2.97
2017-10-25T06:43:24.089Z,2.30
2017-10-25T06:48:25.966Z,2.50
2017-10-25T06:53:27.034Z,2.47
2017-10-25T06:58:28.098Z,2.53
2017-10-25T07:03:29.173Z,2.63
2017-10-25T07:08:30.241Z,2.70
2017-10-25T07:13:32.027Z,3.43
2017-10-25T07:18:33.821Z,2.20
2017-10-25T07:23:34.910Z,2.43
2017-10-25T07:28:35.963Z,2.63
2017-10-25T07:33:37.037Z,2.80
2017-10-25T07:38:38.182Z,2.30
2017-10-25T07:43:39.240Z,2.20
2017-10-25T07:48:40.302Z,2.30
2017-10-25T07:53:41.400Z,2.47
2017-10-25T07:58:43.211Z,2.30
2017-10-25T08:03:44.275Z,2.23
2017-10-25T08:08:45.354Z,2.80
2017-10-25T08:13:46.464Z,2.77
2017-10-25T08:18:48.257Z,2.00
2017-10-25T08:23:49.340Z,2.17
2017-10-25T08:28:50.414Z,2.77
2017-10-25T08:33:51.505Z,2.20
2017-10-25T08:38:53.297Z,2.80
2017-10-25T08:43:55.387Z,2.53
2017-10-25T08:48:56.462Z,2.50
2017-10-25T08:53:57.565Z,2.30
2017-10-25T08:58:58.629Z,2.47
2017-10-25T09:03:59.736Z,2.20
2017-10-25T09:09:00.863Z,2.50
2017-10-25T09:14:09.679Z,2.73
2017-10-25T09:19:10.778Z,3.23
2017-10-25T09:24:22.074Z,2.60
2017-10-25T09:29:31.280Z,2.53
2017-10-25T09:34:34.325Z,2.93
2017-10-25T09:39:35.446Z,2.57
2017-10-25T09:44:36.514Z,2.67
2017-10-25T09:49:37.607Z,3.10
2017-10-25T09:54:38.665Z,2.97
2017-10-25T09:59:39.723Z,2.67
2017-10-25T10:04:40.797Z,2.97
2017-10-25T10:09:41.891Z,2.47
2017-10-25T10:14:43.009Z,2.83
2017-10-25T10:19:44.104Z,2.93
2017-10-25T10:24:45.264Z,2.60
2017-10-25T10:29:46.343Z,2.93
2017-10-25T10:34:49.450Z,2.53
2017-10-25T10:39:50.527Z,2.63
2017-10-25T10:44:52.366Z,2.50
2017-10-25T10:49:53.430Z,2.30
2017-10-25T10:54:54.496Z,2.63
2017-10-25T10:59:55.598Z,2.93
2017-10-25T11:04:56.669Z,2.77
2017-10-25T11:10:01.274Z,2.43
2017-10-25T11:15:04.100Z,2.73
2017-10-25T11:20:07.173Z,2.40
2017-10-25T11:25:12.466Z,2.50
2017-10-25T11:30:21.257Z,2.73
2017-10-25T11:35:23.350Z,2.40
2017-10-25T11:40:25.150Z,2.60
2017-10-25T11:45:26.240Z,2.50
2017-10-25T11:50:27.309Z,2.20
2017-10-25T11:55:28.394Z,2.70
2017-10-25T12:00:33.259Z,2.40
2017-10-25T12:05:35.092Z,2.03
2017-10-25T12:10:36.165Z,2.03
2017-10-25T12:15:37.266Z,2.00
2017-10-25T12:20:38.349Z,2.00
2017-10-25T12:25:45.369Z,2.00
2017-10-25T12:30:46.429Z,2.97
2017-10-25T12:35:53.560Z,1.63
2017-10-25T12:40:55.340Z,3.10
2017-10-25T12:45:57.125Z,1.80
2017-10-25T12:50:58.930Z,1.67
2017-10-25T12:56:00.006Z,2.10
2017-10-25T13:01:01.077Z,2.13
2017-10-25T13:06:02.141Z,2.07
2017-10-25T13:11:04.914Z,1.90
2017-10-25T13:16:07.105Z,2.10
2017-10-25T13:21:08.190Z,1.90
2017-10-25T13:26:09.269Z,1.80
2017-10-25T13:31:14.107Z,1.40
2017-10-25T13:36:15.913Z,1.80
2017-10-25T13:41:16.953Z,1.93
2017-10-25T13:46:19.200Z,2.03
2017-10-25T13:51:21.148Z,1.90
2017-10-25T13:56:26.042Z,1.90
2017-10-25T14:01:27.085Z,1.67
2017-10-25T14:06:28.185Z,2.27
2017-10-25T14:11:33.056Z,2.10
2017-10-25T14:16:34.129Z,1.80
2017-10-25T14:21:35.230Z,1.73
2017-10-25T14:26:49.378Z,2.10
2017-10-25T14:31:50.488Z,1.80
2017-10-25T14:36:51.557Z,2.27
2017-10-25T14:41:52.636Z,2.07
2017-10-25T14:46:53.706Z,2.10
2017-10-25T14:51:54.765Z,1.87
2017-10-25T14:56:55.833Z,2.13
2017-10-25T15:01:56.914Z,1.70
2017-10-25T15:06:58.741Z,3.10
2017-10-25T15:11:59.802Z,1.80
2017-10-25T15:17:00.869Z,1.80
2017-10-25T15:22:01.945Z,1.70
2017-10-25T15:27:03.048Z,2.00
2017-10-25T15:32:04.105Z,2.27
2017-10-25T15:37:05.189Z,1.70
2017-10-25T15:42:06.278Z,2.27
2017-10-25T15:47:07.343Z,2.10
2017-10-25T15:52:08.418Z,2.20
2017-10-25T15:57:10.254Z,2.00
2017-10-25T16:02:11.349Z,2.03
2017-10-25T16:07:13.185Z,2.70
2017-10-25T16:12:14.277Z,2.40
2017-10-25T16:17:16.085Z,2.20
2017-10-25T16:22:17.205Z,3.50
2017-10-25T16:27:18.297Z,3.73
2017-10-25T16:32:19.385Z,3.20
2017-10-25T16:37:20.460Z,3.50
2017-10-25T16:42:21.534Z,3.60
2017-10-25T16:47:22.621Z,3.80
2017-10-25T16:52:24.441Z,4.27
2017-10-25T16:57:25.522Z,4.10
2017-10-25T17:02:26.592Z,4.33
2017-10-25T17:07:32.382Z,4.43
2017-10-25T17:12:33.446Z,4.70
2017-10-25T17:17:34.535Z,4.40
2017-10-25T17:27:36.702Z,4.77
2017-10-25T17:32:38.534Z,5.20
2017-10-25T17:37:39.602Z,4.53
2017-10-25T17:42:40.697Z,5.20
2017-10-25T17:47:43.470Z,7.90
2017-10-25T17:52:44.575Z,5.10
2017-10-25T17:57:45.649Z,5.80
2017-10-25T18:02:46.728Z,6.43
2017-10-25T18:07:47.827Z,6.10
2017-10-25T18:12:49.642Z,5.60
2017-10-25T18:17:50.739Z,6.13
2017-10-25T18:22:51.837Z,6.77
2017-10-25T18:27:53.674Z,6.03
2017-10-25T18:32:54.745Z,5.40
2017-10-25T18:37:55.813Z,5.73
2017-10-25T18:42:56.893Z,6.43
2017-10-25T18:47:57.981Z,7.00
2017-10-25T18:52:59.289Z,5.53
2017-10-25T18:58:00.373Z,5.77
2017-10-25T19:03:01.433Z,4.20
2017-10-25T19:08:02.689Z,4.63
2017-10-25T19:13:04.665Z,5.10
2017-10-25T19:18:06.474Z,4.60
2017-10-25T19:23:07.541Z,4.60
2017-10-25T19:28:08.603Z,5.20
2017-10-25T19:33:09.680Z,4.90
2017-10-25T19:38:11.552Z,4.80
2017-10-25T19:43:12.623Z,6.10
2017-10-25T19:48:13.711Z,5.00
2017-10-25T19:53:15.515Z,5.50
2017-10-25T19:58:16.568Z,5.37
2017-10-25T20:03:17.637Z,6.17
2017-10-25T20:08:18.715Z,5.60
2017-10-25T20:13:19.778Z,5.70
2017-10-25T20:18:20.859Z,6.77
2017-10-25T20:23:21.941Z,6.03
2017-10-25T20:28:23.009Z,6.50
2017-10-25T20:33:24.094Z,6.00
2017-10-25T20:38:25.177Z,5.70
2017-10-25T20:43:26.265Z,5.57
2017-10-25T20:48:28.102Z,5.90
2017-10-25T20:53:29.196Z,5.20
2017-10-25T20:58:31.017Z,5.40
2017-10-25T21:03:32.065Z,6.60
2017-10-25T21:08:33.382Z,5.80
2017-10-25T21:13:34.742Z,5.87
2017-10-25T21:18:35.805Z,6.30
2017-10-25T21:23:37.160Z,6.90
2017-10-25T21:28:38.219Z,6.97
2017-10-25T21:33:39.276Z,6.53
2017-10-25T21:38:40.357Z,6.83
2017-10-25T21:43:42.160Z,6.40
2017-10-25T21:48:43.225Z,8.60
2017-10-25T21:53:44.894Z,6.70
2017-10-25T21:58:45.994Z,6.90
2017-10-25T22:09:25.859Z,6.07
2017-10-25T22:14:30.927Z,6.23
2017-10-25T22:25:21.257Z,5.40
2017-10-25T22:30:22.342Z,6.50
2017-10-25T22:35:40.920Z,5.53
2017-10-25T22:40:54.709Z,5.33
2017-10-25T22:45:56.519Z,6.50
2017-10-25T22:50:57.598Z,5.20
2017-10-25T22:55:58.638Z,5.27
2017-10-25T23:01:04.842Z,5.77
2017-10-25T23:06:12.341Z,5.30
2017-10-25T23:11:24.191Z,5.47
2017-10-25T23:16:40.069Z,5.10
2017-10-25T23:22:03.962Z,5.90
2017-10-25T23:27:15.146Z,6.00
2017-10-25T23:32:18.197Z,5.70
2017-10-25T23:37:20.009Z,5.60
2017-10-25T23:42:21.078Z,5.30
2017-10-25T23:47:22.162Z,5.50
2017-10-25T23:52:23.238Z,5.50
2017-10-25T23:57:31.147Z,4.63
